Time;durP1;ratioP1;P1;durP2;ratioP2;P2;SDS_P1;SDS_P2;PMS_P1;PMS_P2;Temp;Humidity;BMP_temperature;BMP_pressure;BME280_temperature;BME280_humidity;BME280_pressure;Samples;Min_cycle;Max_cycle;Signal;HPM_P1;HPM_P2
2022/08/05 00:01:22;;;;;;;12.88;4.15;;;;;;;21.94;68.29;101369.66;4995860;28;20345;-76
2022/08/05 00:03:49;;;;;;;8.15;4.22;;;;;;;21.82;68.73;101364.63;4995614;28;20053;-76
2022/08/05 00:06:15;;;;;;;9.25;4.30;;;;;;;21.92;68.94;101370.63;4995308;28;20026;-76
2022/08/05 00:08:41;;;;;;;8.57;4.32;;;;;;;21.92;68.95;101371.50;4994847;28;20622;-76
2022/08/05 00:11:10;;;;;;;7.68;4.50;;;;;;;21.87;69.07;101375.25;4994290;28;20528;-76
2022/08/05 00:13:37;;;;;;;7.82;4.38;;;;;;;21.93;68.84;101364.34;4995267;28;20033;-76
2022/08/05 00:16:04;;;;;;;6.10;4.13;;;;;;;21.73;69.38;101368.44;4995449;28;20101;-77
2022/08/05 00:18:30;;;;;;;8.40;4.60;;;;;;;21.77;69.51;101374.63;4995607;28;20030;-76
2022/08/05 00:20:55;;;;;;;7.15;4.25;;;;;;;21.75;69.46;101374.69;4994102;28;20026;-77
2022/08/05 00:23:22;;;;;;;8.98;4.20;;;;;;;21.75;69.72;101381.84;4994829;28;20023;-76
2022/08/05 00:25:48;;;;;;;8.65;4.10;;;;;;;21.84;69.68;101384.31;4995200;28;20073;-77
2022/08/05 00:28:14;;;;;;;7.13;4.38;;;;;;;21.80;69.98;101379.94;4994875;28;20030;-76
2022/08/05 00:30:40;;;;;;;9.32;4.90;;;;;;;21.73;69.95;101373.81;4995123;28;20396;-76
2022/08/05 00:33:06;;;;;;;9.48;4.60;;;;;;;21.78;70.08;101373.69;4994928;28;20480;-76
2022/08/05 00:35:31;;;;;;;12.27;4.60;;;;;;;21.81;70.03;101364.66;4977327;28;20428;-76
2022/08/05 00:37:57;;;;;;;10.63;4.72;;;;;;;21.74;70.10;101372.00;4994913;28;20041;-76
2022/08/05 00:40:24;;;;;;;9.90;4.63;;;;;;;21.70;70.28;101371.22;4977537;28;20026;-76
2022/08/05 00:42:49;;;;;;;10.10;4.68;;;;;;;21.56;71.12;101375.19;4994694;28;20519;-76
2022/08/05 00:45:14;;;;;;;9.60;5.15;;;;;;;21.60;70.83;101383.16;4994819;28;20031;-76
2022/08/05 00:47:40;;;;;;;8.00;4.82;;;;;;;21.59;71.20;101386.78;4994621;28;20034;-77
2022/08/05 00:50:07;;;;;;;11.23;4.90;;;;;;;21.50;71.59;101370.88;4994701;28;20026;-77
2022/08/05 00:52:32;;;;;;;9.05;4.80;;;;;;;21.50;71.76;101379.81;4994563;28;20488;-77
2022/08/05 00:54:58;;;;;;;8.32;4.88;;;;;;;21.56;71.94;101385.97;4994677;28;20065;-77
2022/08/05 00:57:23;;;;;;;8.68;4.70;;;;;;;21.55;72.00;101379.72;4994284;28;20030;-77
2022/08/05 00:59:48;;;;;;;9.23;5.30;;;;;;;21.62;71.49;101381.28;4994470;28;20026;-76
2022/08/05 01:02:14;;;;;;;8.55;5.20;;;;;;;21.55;71.56;101379.72;4994413;28;20061;-76
2022/08/05 01:04:39;;;;;;;12.63;5.30;;;;;;;21.50;71.61;101384.31;4961153;28;20023;-77
2022/08/05 01:07:05;;;;;;;11.93;5.25;;;;;;;21.45;72.27;101379.03;4976767;28;20117;-76
2022/08/05 01:09:30;;;;;;;13.32;5.15;;;;;;;21.49;72.16;101377.16;4994300;28;20033;-77
2022/08/05 01:12:01;;;;;;;11.85;5.20;;;;;;;21.38;72.45;101381.94;4994184;28;20436;-77
2022/08/05 01:14:57;;;;;;;9.63;5.28;;;;;;;21.49;71.96;101390.59;4994323;28;20032;-76
2022/08/05 01:17:30;;;;;;;8.48;5.00;;;;;;;21.38;72.71;101388.19;4994472;28;20035;-77
2022/08/05 01:20:05;;;;;;;9.40;5.05;;;;;;;21.35;72.80;101400.84;4977549;28;20030;-76
2022/08/05 01:23:10;;;;;;;10.40;5.18;;;;;;;21.37;72.45;101405.25;4993982;28;20027;-77
2022/08/05 01:26:00;;;;;;;10.05;4.90;;;;;;;21.37;71.98;101417.78;4994423;28;20050;-76
2022/08/05 01:28:37;;;;;;;10.80;4.90;;;;;;;21.23;73.11;101432.44;4994017;28;20097;-77
2022/08/05 01:31:18;;;;;;;10.30;4.88;;;;;;;21.27;72.48;101450.25;4994248;28;20169;-76
2022/08/05 01:33:50;;;;;;;8.63;4.50;;;;;;;21.41;71.95;101459.81;4994135;28;20034;-76
2022/08/05 01:36:17;;;;;;;11.40;4.97;;;;;;;21.44;71.73;101471.38;4993810;28;20094;-76
2022/08/05 01:38:46;;;;;;;8.05;4.50;;;;;;;21.60;71.38;101457.56;4993854;28;20381;-75
2022/08/05 01:41:15;;;;;;;8.50;4.20;;;;;;;21.59;71.00;101454.00;4993787;28;20046;-78
2022/08/05 01:43:42;;;;;;;8.35;4.35;;;;;;;21.58;71.17;101437.88;4993885;28;20030;-76
2022/08/05 01:46:08;;;;;;;11.93;4.72;;;;;;;21.48;71.82;101434.56;4993942;28;20487;-76
2022/08/05 01:48:35;;;;;;;11.00;4.70;;;;;;;21.46;71.54;101431.91;4993763;28;20030;-76
2022/08/05 01:51:03;;;;;;;9.40;4.15;;;;;;;21.47;71.32;101427.41;4993723;28;20037;-76
2022/08/05 01:53:32;;;;;;;9.18;4.43;;;;;;;21.37;71.93;101440.22;4993721;28;20027;-76
2022/08/05 01:55:59;;;;;;;9.63;4.53;;;;;;;21.25;71.63;101445.84;4976254;28;20022;-77
2022/08/05 01:58:28;;;;;;;12.27;4.53;;;;;;;21.15;72.14;101437.09;4993650;28;20022;-76
2022/08/05 02:00:56;;;;;;;9.80;4.45;;;;;;;21.17;72.40;101434.41;4976406;28;20031;-76
2022/08/05 02:03:37;;;;;;;8.50;4.40;;;;;;;21.18;72.12;101441.53;4993609;28;20030;-75
2022/08/05 02:06:05;;;;;;;13.48;4.57;;;;;;;21.17;72.59;101431.72;4993351;28;20475;-76
2022/08/05 02:08:34;;;;;;;11.27;4.80;;;;;;;21.19;72.52;101408.34;4993451;28;20034;-75
2022/08/05 02:11:10;;;;;;;10.60;4.32;;;;;;;21.19;72.37;101401.16;4996855;28;20023;-76
2022/08/05 02:14:01;;;;;;;10.63;4.50;;;;;;;21.11;72.50;101370.94;4980452;28;20097;-75
2022/08/05 02:16:43;;;;;;;9.20;4.38;;;;;;;21.06;72.96;101380.00;4997579;28;20026;-76
2022/08/05 02:19:28;;;;;;;6.93;3.90;;;;;;;21.07;73.16;101385.38;4980372;28;20361;-76
2022/08/05 02:22:00;;;;;;;9.63;4.30;;;;;;;20.99;73.40;101403.47;4979947;28;20041;-76
2022/08/05 02:24:27;;;;;;;;;;;;;;;21.19;70.98;101429.84;4997666;28;20105;-76
2022/08/05 02:27:00;;;;;;;9.90;4.32;;;;;;;21.12;72.65;101402.25;4997247;28;19914;-76
2022/08/05 02:29:28;;;;;;;10.18;4.10;;;;;;;21.20;72.39;101369.81;4997368;28;20502;-76
2022/08/05 02:31:56;;;;;;;10.05;4.45;;;;;;;21.14;72.51;101408.47;4979971;28;20472;-76
2022/08/05 02:34:23;;;;;;;16.40;4.63;;;;;;;21.14;72.58;101429.97;4997203;28;20030;-76
2022/08/05 02:36:54;;;;;;;11.45;4.43;;;;;;;21.06;72.43;101428.38;4997080;28;20428;-76
2022/08/05 02:39:21;;;;;;;11.02;4.32;;;;;;;21.10;71.75;101435.44;4997078;28;20027;-76
2022/08/05 02:41:48;;;;;;;11.10;4.28;;;;;;;20.99;72.07;101423.16;4997011;28;20030;-76
2022/08/05 02:44:14;;;;;;;9.93;4.70;;;;;;;20.97;72.41;101426.78;4979986;28;20365;-76
2022/08/05 02:46:42;;;;;;;8.82;4.53;;;;;;;20.89;72.64;101444.88;4997086;28;20030;-77
2022/08/05 02:49:09;;;;;;;9.93;4.60;;;;;;;20.89;72.68;101442.19;4996860;28;20030;-76
2022/08/05 02:51:36;;;;;;;10.52;4.38;;;;;;;20.93;72.75;101430.47;4979469;28;20129;-76
2022/08/05 02:54:04;;;;;;;10.38;4.55;;;;;;;20.82;72.72;101417.28;4996827;28;20026;-76
2022/08/05 02:56:30;;;;;;;9.45;4.60;;;;;;;20.83;72.39;101418.16;4996694;28;20035;-76
2022/08/05 02:58:58;;;;;;;11.77;4.38;;;;;;;20.75;72.43;101412.97;4996793;28;20023;-76
2022/08/05 03:01:25;;;;;;;9.68;3.92;;;;;;;20.69;72.23;101403.25;4996703;28;20030;-76
2022/08/05 03:03:55;;;;;;;9.02;4.10;;;;;;;20.62;72.34;101401.59;4979543;28;20392;-77
2022/08/05 03:06:21;;;;;;;13.18;4.80;;;;;;;20.64;71.97;101398.88;4996677;28;20026;-78
2022/08/05 03:08:50;;;;;;;11.13;4.65;;;;;;;20.46;72.60;101390.28;4978937;28;20481;-76
2022/08/05 03:11:23;;;;;;;8.95;4.20;;;;;;;20.37;72.66;101393.16;4996534;28;20033;-76
2022/08/05 03:13:49;;;;;;;7.10;4.00;;;;;;;20.33;72.82;101393.25;4996609;28;20035;-75
2022/08/05 03:16:15;;;;;;;8.38;3.88;;;;;;;20.29;73.32;101400.47;4996436;28;20487;-75
2022/08/05 03:18:41;;;;;;;11.02;4.20;;;;;;;20.26;73.19;101406.81;4996431;28;20158;-76
2022/08/05 03:21:06;;;;;;;11.10;4.13;;;;;;;20.28;73.16;101412.13;4995014;28;20027;-75
2022/08/05 03:23:37;;;;;;;12.93;4.10;;;;;;;20.29;73.85;101430.00;4996008;28;20073;-75
2022/08/05 03:26:03;;;;;;;12.02;4.50;;;;;;;20.33;72.97;101434.41;4996453;28;20035;-75
2022/08/05 03:28:29;;;;;;;8.98;4.03;;;;;;;20.40;72.88;101430.69;4996092;28;20086;-76
2022/08/05 03:30:56;;;;;;;8.85;4.07;;;;;;;20.43;72.83;101429.75;4978932;28;20361;-76
2022/08/05 03:33:22;;;;;;;9.23;4.13;;;;;;;20.51;72.57;101419.75;4978648;28;20023;-75
2022/08/05 03:35:48;;;;;;;11.45;4.60;;;;;;;20.46;73.03;101425.16;4995880;28;20026;-75
2022/08/05 03:38:14;;;;;;;13.05;4.30;;;;;;;20.45;72.46;101439.53;4978838;28;20045;-76
2022/08/05 03:40:40;;;;;;;8.00;4.00;;;;;;;20.46;72.71;101445.78;4996010;28;20081;-75
2022/08/05 03:43:06;;;;;;;9.43;4.22;;;;;;;20.49;72.92;101451.13;4978525;28;20019;-76
2022/08/05 03:45:31;;;;;;;11.38;4.30;;;;;;;20.45;72.49;101450.25;4995979;28;20050;-75
2022/08/05 03:47:56;;;;;;;10.75;4.60;;;;;;;20.58;72.63;101433.94;4995834;28;20113;-75
2022/08/05 03:50:22;;;;;;;10.18;4.30;;;;;;;20.58;71.97;101439.31;4995781;28;20026;-74
2022/08/05 03:52:55;;;;;;;8.90;4.50;;;;;;;20.50;72.67;101426.91;4995889;28;20030;-76
2022/08/05 03:55:26;;;;;;;11.02;4.88;;;;;;;20.52;72.70;101421.53;4995796;28;20050;-76
2022/08/05 03:57:54;;;;;;;12.38;4.93;;;;;;;20.48;72.28;101422.50;4996040;28;20070;-76
2022/08/05 04:00:25;;;;;;;8.98;4.25;;;;;;;20.44;72.76;101410.03;4978211;28;20109;-75
2022/08/05 04:02:51;;;;;;;9.63;4.80;;;;;;;20.41;72.84;101405.59;4978088;28;20031;-75
2022/08/05 04:05:18;;;;;;;11.73;4.53;;;;;;;20.38;72.63;101408.34;4995420;28;20141;-75
2022/08/05 04:07:44;;;;;;;10.50;4.50;;;;;;;20.50;72.42;101415.28;4995508;28;20038;-76
2022/08/05 04:10:10;;;;;;;11.93;4.90;;;;;;;20.42;72.41;101426.16;4978030;28;20043;-75
2022/08/05 04:12:36;;;;;;;11.15;4.10;;;;;;;20.47;72.21;101426.97;4995329;28;20026;-75
2022/08/05 04:15:02;;;;;;;8.68;4.20;;;;;;;20.46;72.49;101421.59;4995375;28;20032;-75
2022/08/05 04:17:27;;;;;;;11.55;4.70;;;;;;;20.51;72.65;101414.38;4995263;28;20027;-76
2022/08/05 04:19:53;;;;;;;11.05;4.70;;;;;;;20.49;72.33;101419.78;4977833;28;20030;-76
2022/08/05 04:22:18;;;;;;;12.30;4.80;;;;;;;20.47;72.67;101407.25;4995275;28;20117;-75
2022/08/05 04:24:45;;;;;;;10.40;4.72;;;;;;;20.44;72.75;101418.97;4994874;28;20167;-75
2022/08/05 04:27:14;;;;;;;9.05;4.35;;;;;;;20.44;72.46;101431.50;4977551;28;20042;-75
2022/08/05 04:29:40;;;;;;;10.00;5.00;;;;;;;20.37;72.57;101429.84;4995050;28;20031;-75
2022/08/05 04:32:06;;;;;;;9.52;4.40;;;;;;;20.38;72.89;101416.38;4994539;28;20027;-75
2022/08/05 04:34:32;;;;;;;9.68;4.80;;;;;;;20.36;73.46;101415.56;4995131;28;20030;-75
2022/08/05 04:36:57;;;;;;;10.05;4.50;;;;;;;20.36;72.94;101423.59;4977546;28;20031;-75
2022/08/05 04:39:23;;;;;;;10.35;5.00;;;;;;;20.29;73.07;101421.94;4994898;28;20027;-76
2022/08/05 04:41:49;;;;;;;11.55;4.63;;;;;;;20.27;72.94;101426.47;4994852;28;20022;-75
2022/08/05 04:44:15;;;;;;;11.10;4.60;;;;;;;20.26;73.29;101439.03;4994758;28;20097;-76
2022/08/05 04:46:41;;;;;;;10.35;4.45;;;;;;;20.35;72.87;101447.81;4994844;28;20472;-75
2022/08/05 04:49:07;;;;;;;12.45;4.65;;;;;;;20.31;73.24;101451.47;4994631;28;20084;-75
2022/08/05 04:51:32;;;;;;;9.48;4.50;;;;;;;20.34;73.30;101437.97;4977458;28;20014;-76
2022/08/05 04:53:58;;;;;;;18.40;5.25;;;;;;;20.26;73.31;101446.19;4994686;28;20400;-76
2022/08/05 04:56:24;;;;;;;10.40;5.10;;;;;;;20.28;73.27;101444.34;4977192;28;20535;-75
2022/08/05 04:58:50;;;;;;;11.75;4.93;;;;;;;20.32;73.14;101442.50;4994557;28;20506;-75
2022/08/05 05:01:15;;;;;;;11.18;5.32;;;;;;;20.20;73.12;101433.75;4994507;28;20113;-75
2022/08/05 05:03:41;;;;;;;11.05;4.97;;;;;;;20.17;73.54;101433.84;4994406;28;20501;-75
2022/08/05 05:06:09;;;;;;;9.88;4.97;;;;;;;20.13;73.53;101433.94;4994230;28;20502;-76
2022/08/05 05:08:35;;;;;;;11.18;5.03;;;;;;;20.15;73.64;101437.44;4994155;28;20022;-75
2022/08/05 05:11:01;;;;;;;11.55;4.82;;;;;;;20.21;73.85;101440.00;4994467;28;20037;-76
2022/08/05 05:13:26;;;;;;;12.65;5.18;;;;;;;20.19;73.88;101441.84;4994357;28;20019;-75
2022/08/05 05:15:52;;;;;;;11.15;4.90;;;;;;;20.23;73.82;101439.06;4993873;28;20073;-74
2022/08/05 05:18:17;;;;;;;10.32;5.25;;;;;;;20.33;74.05;101439.75;4976698;28;20034;-76
2022/08/05 05:20:43;;;;;;;9.75;4.78;;;;;;;20.39;73.46;101438.78;4994129;28;20025;-75
2022/08/05 05:23:09;;;;;;;11.82;5.10;;;;;;;20.34;73.79;101443.31;4994083;28;20078;-76
2022/08/05 05:25:34;;;;;;;13.48;5.20;;;;;;;20.43;73.73;101459.28;4976608;28;20057;-76
2022/08/05 05:28:00;;;;;;;13.50;5.20;;;;;;;20.48;73.17;101449.34;4993981;28;20111;-75
2022/08/05 05:30:26;;;;;;;8.55;4.70;;;;;;;20.49;73.24;101451.13;4993919;28;20022;-76
2022/08/05 05:32:51;;;;;;;15.52;5.10;;;;;;;20.46;73.70;101448.47;4993894;28;20026;-75
2022/08/05 05:35:17;;;;;;;10.07;4.75;;;;;;;20.53;73.34;101450.13;4993812;28;20415;-75
2022/08/05 05:37:50;;;;;;;8.70;4.95;;;;;;;20.52;73.23;101459.13;4993932;28;20033;-75
2022/08/05 05:40:17;;;;;;;11.88;5.15;;;;;;;20.51;73.61;101454.63;4993886;28;20133;-75
2022/08/05 05:42:43;;;;;;;13.65;5.25;;;;;;;20.47;73.67;101463.63;4993809;28;20023;-76
2022/08/05 05:45:09;;;;;;;8.40;4.55;;;;;;;20.40;73.36;101460.22;4993232;28;20025;-75
2022/08/05 05:47:35;;;;;;;12.63;4.68;;;;;;;20.34;73.66;101471.09;4976290;28;20035;-75
2022/08/05 05:50:00;;;;;;;9.38;4.78;;;;;;;20.28;73.73;101468.50;4994044;28;20062;-75
2022/08/05 05:52:26;;;;;;;9.55;4.38;;;;;;;20.25;73.95;101477.47;4976322;28;20369;-76
2022/08/05 05:54:51;;;;;;;12.68;4.18;;;;;;;20.21;74.15;101477.56;4993685;28;20025;-75
2022/08/05 05:57:17;;;;;;;11.73;4.65;;;;;;;20.18;74.10;101483.91;4993673;28;20038;-74
2022/08/05 05:59:42;;;;;;;14.60;4.75;;;;;;;20.26;74.20;101486.44;4976341;28;20161;-76
2022/08/05 06:02:08;;;;;;;11.15;4.20;;;;;;;20.26;74.12;101495.38;4976167;28;20129;-75
2022/08/05 06:04:34;;;;;;;9.98;4.40;;;;;;;20.40;73.56;101483.50;4993566;28;20512;-76
2022/08/05 06:07:00;;;;;;;9.70;4.55;;;;;;;20.38;74.03;101488.00;4993318;28;20063;-75
2022/08/05 06:09:25;;;;;;;11.15;4.28;;;;;;;20.50;73.17;101491.34;4976292;28;20058;-76
2022/08/05 06:11:50;;;;;;;14.57;4.20;;;;;;;20.41;73.21;101486.13;4993571;28;20057;-75
2022/08/05 06:14:16;;;;;;;8.80;3.92;;;;;;;20.42;72.94;101493.25;4993367;28;20081;-75
2022/08/05 06:16:41;;;;;;;9.02;4.22;;;;;;;20.42;73.27;101490.59;4993691;28;20026;-75
2022/08/05 06:19:06;;;;;;;9.23;4.40;;;;;;;20.41;73.60;101486.13;4976165;28;20029;-74
2022/08/05 06:21:32;;;;;;;11.18;4.15;;;;;;;20.58;73.04;101495.69;4993443;28;20052;-76
2022/08/05 06:23:58;;;;;;;15.48;4.78;;;;;;;20.49;73.60;101488.72;4959808;28;20137;-75
2022/08/05 06:26:24;;;;;;;9.75;4.22;;;;;;;20.37;73.09;101492.47;4993735;28;20045;-74
2022/08/05 06:28:49;;;;;;;7.32;3.92;;;;;;;20.31;73.86;101497.09;4975966;28;20034;-75
2022/08/05 06:31:15;;;;;;;17.42;5.10;;;;;;;20.26;74.79;101497.19;4975940;28;20038;-76
2022/08/05 06:33:40;;;;;;;16.10;4.78;;;;;;;20.21;74.72;101499.03;4993414;28;20065;-76
2022/08/05 06:36:06;;;;;;;10.00;4.30;;;;;;;20.20;74.57;101498.16;4993326;28;20035;-74
2022/08/05 06:38:31;;;;;;;27.52;5.35;;;;;;;20.22;74.10;101493.66;4993327;28;20460;-74
2022/08/05 06:40:56;;;;;;;24.67;5.18;;;;;;;20.28;74.38;101500.72;4993337;28;20406;-75
2022/08/05 06:43:22;;;;;;;9.30;4.35;;;;;;;20.39;74.47;101506.78;4993260;28;20388;-75
2022/08/05 06:45:48;;;;;;;12.43;4.20;;;;;;;20.51;73.64;101508.34;4993227;28;20034;-75
2022/08/05 06:48:13;;;;;;;10.13;4.53;;;;;;;20.59;74.45;101513.56;4993176;28;20117;-76
2022/08/05 06:50:38;;;;;;;10.13;4.60;;;;;;;20.69;73.74;101523.22;4959712;28;20042;-74
2022/08/05 06:53:04;;;;;;;9.85;4.35;;;;;;;20.79;72.84;101521.22;4976195;28;20030;-75
2022/08/05 06:55:29;;;;;;;11.43;4.47;;;;;;;20.81;73.64;101519.38;4993798;28;20548;-75
2022/08/05 06:57:55;;;;;;;13.05;4.60;;;;;;;20.95;73.45;101531.63;4996781;28;20034;-75
2022/08/05 07:00:20;;;;;;;9.00;4.20;;;;;;;21.08;73.04;101534.94;4996596;28;20027;-75
2022/08/05 07:02:46;;;;;;;10.68;4.63;;;;;;;21.07;72.17;101532.25;4979379;28;20432;-75
2022/08/05 07:05:13;;;;;;;9.85;4.38;;;;;;;21.02;71.86;101546.66;4996667;28;20022;-75
2022/08/05 07:07:43;;;;;;;11.38;4.28;;;;;;;21.02;71.92;101551.16;4979487;28;20029;-75
2022/08/05 07:10:09;;;;;;;9.73;4.35;;;;;;;21.11;71.73;101547.41;4997163;28;20038;-75
2022/08/05 07:18:03;;;;;;;9.35;4.30;;;;;;;21.01;71.13;101552.97;4996667;28;20055;-75
2022/08/05 07:20:28;;;;;;;9.02;4.30;;;;;;;21.04;72.05;101549.34;4996402;28;20030;-74
2022/08/05 07:22:53;;;;;;;9.43;4.30;;;;;;;21.14;72.26;101550.91;4995316;28;20026;-74
2022/08/05 07:25:19;;;;;;;11.32;4.28;;;;;;;21.27;72.10;101552.41;4978690;28;20528;-74
2022/08/05 07:27:44;;;;;;;11.82;4.38;;;;;;;21.46;71.17;101554.72;4996366;28;20035;-75
2022/08/05 07:30:10;;;;;;;9.30;4.32;;;;;;;21.52;71.06;101559.94;4978855;28;20045;-76
2022/08/05 07:32:36;;;;;;;10.00;4.10;;;;;;;21.57;69.67;101558.03;4996217;28;20113;-74
2022/08/05 07:35:12;;;;;;;10.40;4.20;;;;;;;21.65;70.01;101557.88;4996148;28;20019;-75
2022/08/05 07:37:38;;;;;;;11.73;4.15;;;;;;;21.69;68.57;101563.13;4996173;28;20539;-75
2022/08/05 07:40:04;;;;;;;9.10;4.10;;;;;;;21.78;68.22;101571.91;4996051;28;20131;-74
2022/08/05 07:42:30;;;;;;;11.48;4.05;;;;;;;21.91;68.17;101574.25;4995958;28;20030;-75
2022/08/05 07:44:55;;;;;;;7.53;3.50;;;;;;;21.89;66.87;101580.63;4996069;28;20030;-75
2022/08/05 07:47:21;;;;;;;9.77;4.20;;;;;;;21.89;66.78;101583.31;4995855;28;20054;-75
2022/08/05 07:49:47;;;;;;;11.82;4.00;;;;;;;21.90;66.73;101579.69;4995951;28;20050;-75
2022/08/05 07:52:12;;;;;;;9.20;3.50;;;;;;;21.98;66.42;101583.94;4995801;28;20034;-74
2022/08/05 07:54:38;;;;;;;9.10;3.70;;;;;;;22.11;65.92;101586.34;4995779;28;20436;-75
2022/08/05 07:57:04;;;;;;;10.18;3.20;;;;;;;22.48;65.78;101583.59;4995727;28;20023;-73
2022/08/05 07:59:29;;;;;;;8.48;3.35;;;;;;;22.78;63.89;101591.75;4995658;28;20026;-73
2022/08/05 08:01:55;;;;;;;8.45;3.30;;;;;;;22.96;63.68;101588.59;4995631;28;20429;-73
2022/08/05 08:04:20;;;;;;;6.53;2.80;;;;;;;23.08;60.64;101582.81;4978370;28;20480;-73
2022/08/05 08:06:45;;;;;;;8.70;2.70;;;;;;;23.18;60.23;101581.63;4977801;28;20026;-73
2022/08/05 08:09:11;;;;;;;6.50;2.60;;;;;;;23.21;59.62;101586.03;4994866;28;20030;-72
2022/08/05 08:11:37;;;;;;;6.47;2.58;;;;;;;23.20;57.55;101592.34;4995484;28;20026;-72
2022/08/05 08:14:02;;;;;;;6.43;2.75;;;;;;;23.27;58.69;101593.97;4962069;28;20030;-73
2022/08/05 08:16:28;;;;;;;7.47;2.63;;;;;;;23.34;58.37;101595.56;4995338;28;20035;-73
2022/08/05 08:18:54;;;;;;;6.05;2.70;;;;;;;23.59;59.68;101609.13;4995172;28;20034;-72
2022/08/05 08:21:19;;;;;;;12.30;2.80;;;;;;;23.66;58.88;101601.78;4995328;28;20061;-73
2022/08/05 08:23:44;;;;;;;8.43;3.00;;;;;;;23.79;60.71;101600.47;4994785;28;20070;-73
2022/08/05 08:26:10;;;;;;;7.40;2.75;;;;;;;24.02;56.82;101610.50;4995256;28;20030;-72
2022/08/05 08:28:36;;;;;;;8.77;2.85;;;;;;;24.12;56.00;101611.09;4995056;28;20038;-73
2022/08/05 08:31:01;;;;;;;6.55;2.60;;;;;;;24.04;55.61;101610.47;4994988;28;20129;-73
2022/08/05 08:33:26;;;;;;;5.32;2.47;;;;;;;23.87;55.64;101624.50;4995101;28;20476;-73
2022/08/05 08:35:52;;;;;;;6.97;2.60;;;;;;;23.84;55.45;101622.78;4994794;28;20105;-72
2022/08/05 08:38:17;;;;;;;6.40;2.30;;;;;;;23.84;56.01;101628.19;4977615;28;20042;-73
2022/08/05 08:40:43;;;;;;;9.38;2.63;;;;;;;23.83;55.93;101629.13;4977427;28;20034;-73
2022/08/05 08:43:11;;;;;;;5.63;2.30;;;;;;;23.94;56.28;101632.38;4994827;28;20033;-73
2022/08/05 08:45:37;;;;;;;9.00;2.60;;;;;;;23.91;56.13;101627.06;4977290;28;20046;-73
2022/08/05 08:48:05;;;;;;;6.68;2.60;;;;;;;23.90;56.08;101635.22;4994621;28;20420;-73
2022/08/05 08:50:32;;;;;;;7.15;2.60;;;;;;;24.11;55.97;101634.53;4994701;28;20392;-73
2022/08/05 08:53:04;;;;;;;7.93;3.10;;;;;;;24.12;55.82;101638.09;4994454;28;20022;-72
2022/08/05 08:55:30;;;;;;;7.57;2.65;;;;;;;24.06;54.93;101639.16;4977206;28;20026;-72
2022/08/05 08:57:57;;;;;;;8.95;2.70;;;;;;;24.41;56.85;101651.53;4994471;28;20038;-72
2022/08/05 09:00:23;;;;;;;8.07;2.90;;;;;;;24.57;54.37;101654.59;4994598;28;20038;-72
2022/08/05 09:02:51;;;;;;;5.45;2.70;;;;;;;24.80;54.68;101658.31;4994418;28;20480;-72
2022/08/05 09:05:16;;;;;;;5.38;2.53;;;;;;;24.91;54.29;101656.97;4994079;28;20105;-72
2022/08/05 09:07:42;;;;;;;8.25;2.65;;;;;;;25.12;52.58;101660.75;4993970;28;20045;-72
2022/08/05 09:10:07;;;;;;;8.48;2.55;;;;;;;25.14;52.06;101668.84;4994219;28;20038;-71
2022/08/05 09:12:33;;;;;;;5.03;2.40;;;;;;;25.22;51.10;101667.63;4994318;28;20030;-71
2022/08/05 09:15:01;;;;;;;5.85;2.40;;;;;;;25.11;52.35;101667.13;4994153;28;20450;-71
2022/08/05 09:17:26;;;;;;;6.03;2.38;;;;;;;25.17;51.72;101671.41;4994355;28;20480;-72
2022/08/05 09:19:52;;;;;;;7.25;2.42;;;;;;;25.39;51.32;101669.66;4993872;28;20029;-71
2022/08/05 09:22:17;;;;;;;4.80;2.25;;;;;;;25.27;51.11;101677.34;4994101;28;20067;-72
2022/08/05 09:24:56;;;;;;;5.93;2.33;;;;;;;25.12;51.44;101673.41;4993851;28;20470;-71
2022/08/05 09:27:36;;;;;;;8.73;2.50;;;;;;;25.04;51.84;101681.75;4976703;28;20484;-71
2022/08/05 09:30:05;;;;;;;6.95;2.67;;;;;;;25.10;52.85;101689.69;4994032;28;20514;-72
2022/08/05 09:32:38;;;;;;;6.93;2.55;;;;;;;25.01;52.00;101687.28;4976366;28;20034;-71
2022/08/05 09:35:12;;;;;;;4.32;2.20;;;;;;;24.74;52.56;101691.84;4994022;28;20022;-72
2022/08/05 09:37:47;;;;;;;5.43;2.22;;;;;;;24.58;51.91;101690.59;4993623;28;20034;-72
2022/08/05 09:40:28;;;;;;;4.60;2.22;;;;;;;24.42;52.67;101688.44;4993826;28;20038;-72
2022/08/05 09:42:53;;;;;;;5.18;2.20;;;;;;;24.18;53.34;101689.19;4993758;28;20026;-72
2022/08/05 09:45:19;;;;;;;6.65;2.30;;;;;;;24.31;55.22;101701.38;4993772;28;20045;-75
2022/08/05 09:47:44;;;;;;;7.80;2.33;;;;;;;24.66;52.71;101700.22;4993648;28;20514;-74
2022/08/05 09:50:09;;;;;;;5.38;2.13;;;;;;;25.04;52.86;101706.09;4993558;28;20026;-74
2022/08/05 09:52:35;;;;;;;6.47;2.50;;;;;;;25.46;51.92;101710.91;4993719;28;20380;-72
2022/08/05 09:55:06;;;;;;;5.30;2.15;;;;;;;25.71;48.86;101703.63;4993667;28;20042;-71
2022/08/05 09:57:40;;;;;;;6.43;2.30;;;;;;;26.06;47.20;101709.50;4993630;28;20049;-73
2022/08/05 10:00:18;;;;;;;4.95;2.30;;;;;;;26.21;48.28;101705.31;4993693;28;20030;-71
2022/08/05 10:02:48;;;;;;;6.63;2.03;;;;;;;26.45;47.39;101698.00;4993667;28;20130;-71
2022/08/05 10:05:17;;;;;;;4.57;2.20;;;;;;;26.60;47.17;101694.66;4993793;28;20024;-71
2022/08/05 10:07:57;;;;;;;4.43;2.00;;;;;;;26.60;46.73;101699.19;4993636;28;20027;-71
2022/08/05 10:10:25;;;;;;;5.05;2.15;;;;;;;26.49;45.37;101701.47;4993589;28;20040;-71
2022/08/05 10:12:54;;;;;;;5.93;2.13;;;;;;;26.14;46.68;101706.50;4993449;28;20123;-71
2022/08/05 10:15:23;;;;;;;4.95;2.10;;;;;;;25.89;47.50;101721.00;4993405;28;20457;-70
2022/08/05 10:18:10;;;;;;;7.10;1.90;;;;;;;25.68;48.30;101713.69;4993749;28;20065;-70
2022/08/05 10:20:41;;;;;;;5.13;2.20;;;;;;;25.57;45.60;101719.53;4993317;28;20167;-71
2022/08/05 10:23:08;;;;;;;6.13;1.98;;;;;;;25.47;43.73;101718.97;4993762;28;20042;-71
2022/08/05 10:25:34;;;;;;;3.83;1.70;;;;;;;25.32;42.40;101721.38;4993191;28;20054;-71
2022/08/05 10:28:00;;;;;;;3.15;1.70;;;;;;;25.27;41.09;101721.53;4993338;28;20531;-71
2022/08/05 10:30:26;;;;;;;5.60;1.65;;;;;;;25.45;41.07;101722.69;4993917;28;20026;-71
2022/08/05 10:32:53;;;;;;;3.95;1.80;;;;;;;26.06;42.83;101725.75;4997060;28;20026;-71
2022/08/05 10:35:19;;;;;;;2.13;1.40;;;;;;;26.86;42.02;101717.94;4997305;28;20472;-71
2022/08/05 10:37:46;;;;;;;3.15;1.52;;;;;;;27.34;37.40;101716.72;4979702;28;20038;-71
2022/08/05 10:40:30;;;;;;;2.97;1.60;;;;;;;27.37;36.85;101723.88;4997175;28;20030;-71
2022/08/05 10:43:06;;;;;;;2.47;1.30;;;;;;;27.10;35.92;101721.41;4997163;28;20387;-71
2022/08/05 10:45:33;;;;;;;2.85;1.40;;;;;;;27.13;36.32;101728.56;4997095;28;20093;-71
2022/08/05 10:48:35;;;;;;;2.10;1.40;;;;;;;27.06;38.09;101719.75;4996953;28;20027;-70
2022/08/05 10:51:02;;;;;;;4.15;1.70;;;;;;;26.86;36.05;101730.63;4996941;28;20066;-70
2022/08/05 10:53:39;;;;;;;2.22;1.25;;;;;;;26.83;36.81;101730.75;4996938;28;20029;-70
2022/08/05 10:56:15;;;;;;;3.38;1.50;;;;;;;26.73;35.58;101730.25;4996909;28;20019;-70
2022/08/05 10:58:53;;;;;;;2.47;1.50;;;;;;;26.69;35.42;101747.59;4996603;28;20455;-70
2022/08/05 11:01:32;;;;;;;2.92;1.58;;;;;;;26.70;36.38;101739.41;4997031;28;20056;-70
2022/08/05 11:04:05;;;;;;;5.10;2.70;;;;;;;26.70;35.68;101736.69;4996637;28;20027;-70
2022/08/05 11:06:31;;;;;;;4.30;2.30;;;;;;;26.73;36.02;101751.09;4996523;28;20399;-70
2022/08/05 11:09:09;;;;;;;4.45;2.67;;;;;;;26.83;36.54;101749.72;4996514;28;20030;-70
2022/08/05 11:11:35;;;;;;;6.82;4.40;;;;;;;26.85;34.56;101743.31;4996548;28;20065;-70
2022/08/05 11:14:01;;;;;;;3.03;2.17;;;;;;;26.80;32.89;101750.72;4996585;28;20038;-70
2022/08/05 11:16:27;;;;;;;11.60;6.40;;;;;;;26.80;33.03;101747.13;4996347;28;20419;-71
2022/08/05 11:19:24;;;;;;;5.15;2.83;;;;;;;26.62;34.61;101751.50;4996323;28;20033;-71
2022/08/05 11:21:49;;;;;;;3.45;2.05;;;;;;;26.65;34.82;101748.69;4996333;28;20126;-70
2022/08/05 11:24:15;;;;;;;3.17;1.65;;;;;;;26.80;34.05;101755.28;4996135;28;20125;-70
2022/08/05 11:26:40;;;;;;;11.15;7.20;;;;;;;26.81;33.10;101748.91;4996136;28;20551;-70
2022/08/05 11:29:06;;;;;;;7.43;2.17;;;;;;;26.85;33.43;101751.44;4962374;28;20081;-71
2022/08/05 11:31:32;;;;;;;5.65;2.25;;;;;;;27.02;33.59;101756.09;4996346;28;20428;-70